»·PEaware :: SKY525 KOAR-KPAO

SKY525 :: KOAR-KPAO

FLIGHT INFORMATION

Flight Status: Arrived
Operator:
Sky High Charters
More flights by this operator :: More flights under this callsign
Pilot: Justin C. (30559)
Aircraft: BEECH AIRCRAFT A90-E90 KING AIR
(BE9L)
More flights by this aircraft type
Origin: KOAR Marina
United States
Destination: KPAO Palo Alto Of Santa Clara Co
United States
More flights between these airports :: More routes between these airports
Route: +SNS V25 SAPID
File this flight plan on PilotEdge
Remarks: ODP OUT KOAR
Altitude:
(Current/Filed)
6,000ft
Speed:
(Current/Filed)
180kts
Departed: 06-Aug-20 10:23 AM
Arrived: 06-Aug-20 11:07 AM
Distance/Time
Traveled:
50nm/0:44
Distance/Time
To Go:
Arrived

Flight Plot

Page will automatically refresh every two minutes.

Flight plan parsing failed; only flown route is shown


Map Options




Map Legend


Flown Route
Filed Route
Departure Airport
Arrival Airport
Navaid (VOR, NDB)
Fix

Horizontal Profiles

Position Reports

Time Latitude Longitude Heading Altitude Ground
Speed
06-Aug-20 09:49 36.676474 -121.761408 124 134ft 0kts
06-Aug-20 09:50 36.676474 -121.761408 124 134ft 0kts
06-Aug-20 09:51 36.676474 -121.761408 124 134ft 0kts
06-Aug-20 09:52 36.676474 -121.761408 124 134ft 0kts
06-Aug-20 09:53 36.676474 -121.761408 124 134ft 0kts
06-Aug-20 09:54 36.676474 -121.761408 124 134ft 0kts
06-Aug-20 09:55 36.676474 -121.761408 124 134ft 0kts
06-Aug-20 09:56 36.676474 -121.761408 124 134ft 0kts
06-Aug-20 09:57 36.676474 -121.761408 124 134ft 0kts
06-Aug-20 09:58 36.676474 -121.761408 124 134ft 0kts
06-Aug-20 09:59 36.676474 -121.761408 124 134ft 0kts
06-Aug-20 10:01 36.676474 -121.761408 124 134ft 0kts
06-Aug-20 10:02 36.676474 -121.761408 124 134ft 0kts
06-Aug-20 10:03 36.676474 -121.761408 124 134ft 0kts
06-Aug-20 10:07 36.681498 -121.765859 213 136ft 0kts
06-Aug-20 10:08 37.458317 -122.113516 270 6ft 0kts
06-Aug-20 10:09 37.458317 -122.113516 270 6ft 0kts
06-Aug-20 10:10 37.458317 -122.113516 270 6ft 0kts
06-Aug-20 10:12 36.681485 -121.765870 213 137ft 0kts
06-Aug-20 10:13 36.681485 -121.765870 213 137ft 0kts
06-Aug-20 10:14 36.681485 -121.765870 213 137ft 0kts
06-Aug-20 10:15 36.681485 -121.765870 213 137ft 0kts
06-Aug-20 10:16 36.681485 -121.765870 213 137ft 0kts
06-Aug-20 10:16 36.681485 -121.765870 213 137ft 0kts
06-Aug-20 10:18 36.681623 -121.766175 336 137ft 9kts
06-Aug-20 10:19 36.683435 -121.767785 44 135ft 11kts
06-Aug-20 10:19 36.683548 -121.767389 83 135ft 0kts
06-Aug-20 10:21 36.683549 -121.767371 85 135ft 2kts
06-Aug-20 10:21 36.683605 -121.765632 116 135ft 14kts
06-Aug-20 10:22 36.689341 -121.749644 95 555ft 99kts
06-Aug-20 10:23 36.675587 -121.722450 117 893ft 104kts
06-Aug-20 10:24 36.672961 -121.683925 89 1591ft 109kts
06-Aug-20 10:25 36.670767 -121.646079 93 2409ft 106kts
06-Aug-20 10:26 36.667491 -121.610406 91 3299ft 101kts
06-Aug-20 10:27 36.680578 -121.609359 274 4245ft 73kts
06-Aug-20 10:28 36.680883 -121.635884 267 5051ft 79kts
06-Aug-20 10:29 36.665052 -121.637415 94 5723ft 110kts
06-Aug-20 10:30 36.684397 -121.634411 308 6018ft 110kts
06-Aug-20 10:31 36.704950 -121.663766 307 6012ft 109kts
06-Aug-20 10:32 36.725101 -121.693337 307 6012ft 109kts
06-Aug-20 10:33 36.744780 -121.722437 306 6012ft 109kts
06-Aug-20 10:34 36.764566 -121.751773 306 6012ft 109kts
06-Aug-20 10:35 36.784428 -121.781263 306 6012ft 110kts
06-Aug-20 10:36 36.804280 -121.810769 306 6011ft 110kts
06-Aug-20 10:37 36.823810 -121.839825 306 6011ft 110kts
06-Aug-20 10:38 36.843607 -121.869304 306 6011ft 110kts
06-Aug-20 10:39 36.863835 -121.899451 305 6011ft 110kts
06-Aug-20 10:40 36.883538 -121.928844 305 6011ft 111kts
06-Aug-20 10:41 36.903424 -121.958535 305 6011ft 110kts
06-Aug-20 10:42 36.923256 -121.988171 305 6011ft 110kts
06-Aug-20 10:43 36.943546 -122.018518 305 6011ft 110kts
06-Aug-20 10:44 36.963809 -122.048855 305 6010ft 110kts
06-Aug-20 10:45 36.985502 -122.075807 324 6006ft 113kts
06-Aug-20 10:46 37.016052 -122.093241 332 6002ft 116kts
06-Aug-20 10:47 37.046330 -122.108506 332 5996ft 117kts
06-Aug-20 10:48 37.077325 -122.124033 333 5988ft 114kts
06-Aug-20 10:49 37.106048 -122.138556 341 5982ft 108kts
06-Aug-20 10:50 37.133886 -122.152568 337 5899ft 110kts
06-Aug-20 10:51 37.163035 -122.168157 341 5586ft 117kts
06-Aug-20 10:52 37.193168 -122.167476 46 5060ft 119kts
06-Aug-20 10:53 37.209786 -122.132881 60 4829ft 106kts
06-Aug-20 10:54 37.222717 -122.101022 60 4833ft 100kts
06-Aug-20 10:55 37.235106 -122.070104 61 4834ft 98kts
06-Aug-20 10:56 37.247467 -122.039171 61 4834ft 98kts
06-Aug-20 10:57 37.272049 -122.036500 339 4453ft 119kts
06-Aug-20 10:58 37.305191 -122.042460 347 3820ft 122kts
06-Aug-20 10:59 37.335478 -122.052962 346 2725ft 102kts
06-Aug-20 11:00 37.358991 -122.061605 342 2287ft 69kts
06-Aug-20 11:01 37.379237 -122.069440 347 2287ft 72kts
06-Aug-20 11:02 37.397645 -122.078804 335 1713ft 69kts
06-Aug-20 11:03 37.415825 -122.089489 339 1161ft 72kts
06-Aug-20 11:04 37.434104 -122.099322 340 703ft 69kts
06-Aug-20 11:05 37.453214 -122.107459 329 176ft 70kts
06-Aug-20 11:06 37.463205 -122.117146 321 7ft 6kts
06-Aug-20 11:07 37.463107 -122.117790 138 7ft 0kts
06-Aug-20 11:08 37.461330 -122.115885 141 7ft 12kts
06-Aug-20 11:09 37.459181 -122.114497 176 7ft 7kts
06-Aug-20 11:10 37.458785 -122.114775 275 7ft 0kts

Navigation Log

Ident Type
Flight plan parsing failed, navigation log unavailable